KRYN

Ryan Field Airport

Tucson, Arizona, USA
METAR KRYN 151845Z 35006KT 10SM BKN010 17/13 A3005
Observed Flight Rules
Feb-15 @ 18:45 UTC (an hour ago) Marginal Visual Flight Rules
Wind Visibility Clouds
350° at 6 knots 10 miles
  • Broken at 1,000' AGL
Temperatures Readings
Current 17°C / 63°F
Dewpoint 13°C / 55°F
Humidity 77%
Altimeter 30.05" Hg
Pressure 1017.62 hPa
Elevation 737
METAR KRYN 151845Z 35006KT 10SM BKN010 17/13 A3005
Observed Flight Rules
Feb-15 @ 18:45 UTC
(an hour ago)
MVFR
Wind Visibility
350° at 6 knots 10 miles
Clouds
  • Broken at 1,000' AGL
Temperature Dewpoint
17°C / 63°F 13°C / 55°F
Humidity Altimeter Pressure
77% 30.05" Hg 1017.62 hPa